sensor_id;sensor_type;location;lat;lon;timestamp;temperature;humidity
7000;DHT22;3540;53.242;10.408;2024-02-21T00:01:42;8.40;99.90
7000;DHT22;3540;53.242;10.408;2024-02-21T00:04:08;8.40;99.90
7000;DHT22;3540;53.242;10.408;2024-02-21T00:06:33;8.40;99.90
7000;DHT22;3540;53.242;10.408;2024-02-21T00:08:59;8.30;99.90
7000;DHT22;3540;53.242;10.408;2024-02-21T00:11:25;8.40;99.90
7000;DHT22;3540;53.242;10.408;2024-02-21T00:13:50;8.40;99.90
7000;DHT22;3540;53.242;10.408;2024-02-21T00:16:16;8.40;99.90
7000;DHT22;3540;53.242;10.408;2024-02-21T00:18:43;8.40;99.90
7000;DHT22;3540;53.242;10.408;2024-02-21T00:21:08;8.40;99.90
7000;DHT22;3540;53.242;10.408;2024-02-21T00:23:34;8.40;99.90
7000;DHT22;3540;53.242;10.408;2024-02-21T00:26:00;8.40;99.90
7000;DHT22;3540;53.242;10.408;2024-02-21T00:28:25;8.40;99.90
7000;DHT22;3540;53.242;10.408;2024-02-21T00:30:51;8.40;99.90
7000;DHT22;3540;53.242;10.408;2024-02-21T00:33:18;8.40;99.90
7000;DHT22;3540;53.242;10.408;2024-02-21T00:35:44;8.40;99.90
7000;DHT22;3540;53.242;10.408;2024-02-21T00:38:10;8.50;99.90
7000;DHT22;3540;53.242;10.408;2024-02-21T00:40:35;8.40;99.90
7000;DHT22;3540;53.242;10.408;2024-02-21T00:43:01;8.40;99.90
7000;DHT22;3540;53.242;10.408;2024-02-21T00:45:26;8.40;99.90
7000;DHT22;3540;53.242;10.408;2024-02-21T00:47:52;8.40;99.90
7000;DHT22;3540;53.242;10.408;2024-02-21T00:50:18;8.40;99.90
7000;DHT22;3540;53.242;10.408;2024-02-21T00:52:43;8.40;99.90
7000;DHT22;3540;53.242;10.408;2024-02-21T00:55:10;8.40;99.90
7000;DHT22;3540;53.242;10.408;2024-02-21T00:57:36;8.40;99.90
7000;DHT22;3540;53.242;10.408;2024-02-21T01:00:03;8.40;99.90
7000;DHT22;3540;53.242;10.408;2024-02-21T01:02:28;8.40;99.90
7000;DHT22;3540;53.242;10.408;2024-02-21T01:04:57;8.40;99.90
7000;DHT22;3540;53.242;10.408;2024-02-21T01:07:23;8.40;99.90
7000;DHT22;3540;53.242;10.408;2024-02-21T01:09:48;8.40;99.90
7000;DHT22;3540;53.242;10.408;2024-02-21T01:12:16;8.40;99.90
7000;DHT22;3540;53.242;10.408;2024-02-21T01:14:42;8.40;99.90
7000;DHT22;3540;53.242;10.408;2024-02-21T01:17:08;8.40;99.90
7000;DHT22;3540;53.242;10.408;2024-02-21T01:19:33;8.40;99.90
7000;DHT22;3540;53.242;10.408;2024-02-21T01:21:59;8.40;99.90
7000;DHT22;3540;53.242;10.408;2024-02-21T01:24:25;8.40;99.90
7000;DHT22;3540;53.242;10.408;2024-02-21T01:26:50;8.40;99.90
7000;DHT22;3540;53.242;10.408;2024-02-21T01:29:16;8.40;99.90
7000;DHT22;3540;53.242;10.408;2024-02-21T01:31:41;8.40;99.90
7000;DHT22;3540;53.242;10.408;2024-02-21T01:34:07;8.50;99.90
7000;DHT22;3540;53.242;10.408;2024-02-21T01:36:33;8.50;99.90
7000;DHT22;3540;53.242;10.408;2024-02-21T01:38:59;8.50;99.90
7000;DHT22;3540;53.242;10.408;2024-02-21T01:41:24;8.50;99.90
7000;DHT22;3540;53.242;10.408;2024-02-21T01:43:50;8.50;99.90
7000;DHT22;3540;53.242;10.408;2024-02-21T01:46:16;8.50;99.90
7000;DHT22;3540;53.242;10.408;2024-02-21T01:48:41;8.50;99.90
7000;DHT22;3540;53.242;10.408;2024-02-21T01:51:07;8.50;99.90
7000;DHT22;3540;53.242;10.408;2024-02-21T01:53:36;8.60;99.90
7000;DHT22;3540;53.242;10.408;2024-02-21T01:56:03;8.60;99.90
7000;DHT22;3540;53.242;10.408;2024-02-21T01:58:31;8.60;99.90
7000;DHT22;3540;53.242;10.408;2024-02-21T02:00:57;8.60;99.90
7000;DHT22;3540;53.242;10.408;2024-02-21T02:03:23;8.60;99.90
7000;DHT22;3540;53.242;10.408;2024-02-21T02:05:51;8.60;99.90
7000;DHT22;3540;53.242;10.408;2024-02-21T02:08:18;8.70;99.90
7000;DHT22;3540;53.242;10.408;2024-02-21T02:10:44;8.60;99.90
7000;DHT22;3540;53.242;10.408;2024-02-21T02:13:11;8.60;99.90
7000;DHT22;3540;53.242;10.408;2024-02-21T02:15:49;8.60;99.90
7000;DHT22;3540;53.242;10.408;2024-02-21T02:18:16;8.60;99.90
7000;DHT22;3540;53.242;10.408;2024-02-21T02:20:43;8.60;99.90
7000;DHT22;3540;53.242;10.408;2024-02-21T02:23:29;8.60;99.90
7000;DHT22;3540;53.242;10.408;2024-02-21T02:25:55;8.60;99.90
7000;DHT22;3540;53.242;10.408;2024-02-21T02:28:21;8.60;99.90
7000;DHT22;3540;53.242;10.408;2024-02-21T02:30:48;8.50;99.90
7000;DHT22;3540;53.242;10.408;2024-02-21T02:33:14;8.60;99.90
7000;DHT22;3540;53.242;10.408;2024-02-21T02:35:39;8.60;99.90
7000;DHT22;3540;53.242;10.408;2024-02-21T02:38:05;8.50;99.90
7000;DHT22;3540;53.242;10.408;2024-02-21T02:40:35;8.50;99.90
7000;DHT22;3540;53.242;10.408;2024-02-21T02:43:01;8.50;99.90
7000;DHT22;3540;53.242;10.408;2024-02-21T02:45:26;8.50;99.90
7000;DHT22;3540;53.242;10.408;2024-02-21T02:47:56;8.50;99.90
7000;DHT22;3540;53.242;10.408;2024-02-21T02:50:23;8.50;99.90
7000;DHT22;3540;53.242;10.408;2024-02-21T02:52:49;8.40;99.90
7000;DHT22;3540;53.242;10.408;2024-02-21T02:55:15;8.40;99.90
7000;DHT22;3540;53.242;10.408;2024-02-21T02:57:40;8.50;99.90
7000;DHT22;3540;53.242;10.408;2024-02-21T03:00:11;8.40;99.90
7000;DHT22;3540;53.242;10.408;2024-02-21T03:02:38;8.40;99.90
7000;DHT22;3540;53.242;10.408;2024-02-21T03:05:14;8.40;99.90
7000;DHT22;3540;53.242;10.408;2024-02-21T03:07:40;8.40;99.90
7000;DHT22;3540;53.242;10.408;2024-02-21T03:10:06;8.50;99.90
7000;DHT22;3540;53.242;10.408;2024-02-21T03:12:32;8.50;99.90
7000;DHT22;3540;53.242;10.408;2024-02-21T03:14:57;8.50;99.90
7000;DHT22;3540;53.242;10.408;2024-02-21T03:17:24;8.50;99.90
7000;DHT22;3540;53.242;10.408;2024-02-21T03:19:50;8.50;99.90
7000;DHT22;3540;53.242;10.408;2024-02-21T03:22:16;8.50;99.90
7000;DHT22;3540;53.242;10.408;2024-02-21T03:24:42;8.50;99.90
7000;DHT22;3540;53.242;10.408;2024-02-21T03:27:08;8.60;99.90
7000;DHT22;3540;53.242;10.408;2024-02-21T03:29:33;8.60;99.90
7000;DHT22;3540;53.242;10.408;2024-02-21T03:31:59;8.60;99.90
7000;DHT22;3540;53.242;10.408;2024-02-21T03:34:25;8.60;99.90
7000;DHT22;3540;53.242;10.408;2024-02-21T03:36:50;8.60;99.90
7000;DHT22;3540;53.242;10.408;2024-02-21T03:39:16;8.60;99.90
7000;DHT22;3540;53.242;10.408;2024-02-21T03:41:41;8.70;99.90
7000;DHT22;3540;53.242;10.408;2024-02-21T03:44:07;8.70;99.90
7000;DHT22;3540;53.242;10.408;2024-02-21T03:46:33;8.70;99.90
7000;DHT22;3540;53.242;10.408;2024-02-21T03:48:58;8.70;99.90
7000;DHT22;3540;53.242;10.408;2024-02-21T03:51:24;8.80;99.90
7000;DHT22;3540;53.242;10.408;2024-02-21T03:53:50;8.80;99.90
7000;DHT22;3540;53.242;10.408;2024-02-21T03:56:16;8.80;99.90
7000;DHT22;3540;53.242;10.408;2024-02-21T03:58:41;8.80;99.90
7000;DHT22;3540;53.242;10.408;2024-02-21T04:01:07;8.80;99.90
7000;DHT22;3540;53.242;10.408;2024-02-21T04:03:33;8.80;99.90
7000;DHT22;3540;53.242;10.408;2024-02-21T04:05:58;8.80;99.90
7000;DHT22;3540;53.242;10.408;2024-02-21T04:08:24;8.80;99.90
7000;DHT22;3540;53.242;10.408;2024-02-21T04:10:50;8.90;99.90
7000;DHT22;3540;53.242;10.408;2024-02-21T04:13:15;8.90;99.90
7000;DHT22;3540;53.242;10.408;2024-02-21T04:15:41;8.90;99.90
7000;DHT22;3540;53.242;10.408;2024-02-21T04:18:06;8.90;99.90
7000;DHT22;3540;53.242;10.408;2024-02-21T04:20:33;8.90;99.90
7000;DHT22;3540;53.242;10.408;2024-02-21T04:22:59;8.90;99.90
7000;DHT22;3540;53.242;10.408;2024-02-21T04:25:24;8.90;99.90
7000;DHT22;3540;53.242;10.408;2024-02-21T04:27:50;8.90;99.90
7000;DHT22;3540;53.242;10.408;2024-02-21T04:30:16;8.90;99.90
7000;DHT22;3540;53.242;10.408;2024-02-21T04:32:42;9.00;99.90
7000;DHT22;3540;53.242;10.408;2024-02-21T04:35:08;9.00;99.90
7000;DHT22;3540;53.242;10.408;2024-02-21T04:37:34;8.90;99.90
7000;DHT22;3540;53.242;10.408;2024-02-21T04:39:59;8.90;99.90
7000;DHT22;3540;53.242;10.408;2024-02-21T04:42:25;8.90;99.90
7000;DHT22;3540;53.242;10.408;2024-02-21T04:44:51;8.90;99.90
7000;DHT22;3540;53.242;10.408;2024-02-21T04:47:17;8.90;99.90
7000;DHT22;3540;53.242;10.408;2024-02-21T04:49:42;8.90;99.90
7000;DHT22;3540;53.242;10.408;2024-02-21T04:52:08;8.90;99.90
7000;DHT22;3540;53.242;10.408;2024-02-21T04:54:34;8.90;99.90
7000;DHT22;3540;53.242;10.408;2024-02-21T04:57:01;8.90;99.90
7000;DHT22;3540;53.242;10.408;2024-02-21T04:59:26;8.80;99.90
7000;DHT22;3540;53.242;10.408;2024-02-21T05:01:52;8.80;99.90
7000;DHT22;3540;53.242;10.408;2024-02-21T05:04:18;8.70;99.90
7000;DHT22;3540;53.242;10.408;2024-02-21T05:06:43;8.70;99.90
7000;DHT22;3540;53.242;10.408;2024-02-21T05:09:09;8.70;99.90
7000;DHT22;3540;53.242;10.408;2024-02-21T05:11:38;8.70;99.90
7000;DHT22;3540;53.242;10.408;2024-02-21T05:14:04;8.60;99.90
7000;DHT22;3540;53.242;10.408;2024-02-21T05:16:30;8.60;99.90
7000;DHT22;3540;53.242;10.408;2024-02-21T05:18:56;8.60;99.90
7000;DHT22;3540;53.242;10.408;2024-02-21T05:21:25;8.60;99.90
7000;DHT22;3540;53.242;10.408;2024-02-21T05:23:51;8.60;99.90
7000;DHT22;3540;53.242;10.408;2024-02-21T05:26:24;8.60;99.90
7000;DHT22;3540;53.242;10.408;2024-02-21T05:28:50;8.60;99.90
7000;DHT22;3540;53.242;10.408;2024-02-21T05:31:19;8.60;99.90
7000;DHT22;3540;53.242;10.408;2024-02-21T05:33:45;8.60;99.90
7000;DHT22;3540;53.242;10.408;2024-02-21T05:36:11;8.60;99.90
7000;DHT22;3540;53.242;10.408;2024-02-21T05:38:37;8.60;99.90
7000;DHT22;3540;53.242;10.408;2024-02-21T05:41:03;8.60;99.90
7000;DHT22;3540;53.242;10.408;2024-02-21T05:43:29;8.50;99.90
7000;DHT22;3540;53.242;10.408;2024-02-21T05:45:55;8.50;99.90
7000;DHT22;3540;53.242;10.408;2024-02-21T05:48:21;8.50;99.90
7000;DHT22;3540;53.242;10.408;2024-02-21T05:50:47;8.50;99.90
7000;DHT22;3540;53.242;10.408;2024-02-21T05:53:13;8.50;99.90
7000;DHT22;3540;53.242;10.408;2024-02-21T05:55:39;8.50;99.90
7000;DHT22;3540;53.242;10.408;2024-02-21T05:58:04;8.50;99.90
7000;DHT22;3540;53.242;10.408;2024-02-21T06:00:31;8.50;99.90
7000;DHT22;3540;53.242;10.408;2024-02-21T06:02:57;8.40;99.90
7000;DHT22;3540;53.242;10.408;2024-02-21T06:05:23;8.40;99.90
7000;DHT22;3540;53.242;10.408;2024-02-21T06:07:49;8.50;99.90
7000;DHT22;3540;53.242;10.408;2024-02-21T06:10:15;8.50;99.90
7000;DHT22;3540;53.242;10.408;2024-02-21T06:12:40;8.50;99.90
7000;DHT22;3540;53.242;10.408;2024-02-21T06:15:06;8.50;99.90
7000;DHT22;3540;53.242;10.408;2024-02-21T06:17:32;8.40;99.90
7000;DHT22;3540;53.242;10.408;2024-02-21T06:19:58;8.40;99.90
7000;DHT22;3540;53.242;10.408;2024-02-21T06:22:23;8.50;99.90
7000;DHT22;3540;53.242;10.408;2024-02-21T06:24:49;8.50;99.90
7000;DHT22;3540;53.242;10.408;2024-02-21T06:27:15;8.50;99.90
7000;DHT22;3540;53.242;10.408;2024-02-21T06:29:42;8.50;99.90
7000;DHT22;3540;53.242;10.408;2024-02-21T06:32:08;8.40;99.90
7000;DHT22;3540;53.242;10.408;2024-02-21T06:34:33;8.40;99.90
7000;DHT22;3540;53.242;10.408;2024-02-21T06:36:59;8.40;99.90
7000;DHT22;3540;53.242;10.408;2024-02-21T06:39:24;8.50;99.90
7000;DHT22;3540;53.242;10.408;2024-02-21T06:41:50;8.50;99.90
7000;DHT22;3540;53.242;10.408;2024-02-21T06:44:17;8.50;99.90
7000;DHT22;3540;53.242;10.408;2024-02-21T06:46:43;8.50;99.90
7000;DHT22;3540;53.242;10.408;2024-02-21T06:49:08;8.60;99.90
7000;DHT22;3540;53.242;10.408;2024-02-21T06:51:34;8.50;99.90
7000;DHT22;3540;53.242;10.408;2024-02-21T06:54:00;8.50;99.90
7000;DHT22;3540;53.242;10.408;2024-02-21T06:56:26;8.50;99.90
7000;DHT22;3540;53.242;10.408;2024-02-21T06:58:57;8.40;99.90
7000;DHT22;3540;53.242;10.408;2024-02-21T07:01:24;8.40;99.90
7000;DHT22;3540;53.242;10.408;2024-02-21T07:03:49;8.40;99.90
7000;DHT22;3540;53.242;10.408;2024-02-21T07:06:15;8.40;99.90
7000;DHT22;3540;53.242;10.408;2024-02-21T07:08:41;8.40;99.90
7000;DHT22;3540;53.242;10.408;2024-02-21T07:11:06;8.40;99.90
7000;DHT22;3540;53.242;10.408;2024-02-21T07:13:33;8.40;99.90
7000;DHT22;3540;53.242;10.408;2024-02-21T07:15:58;8.40;99.90
7000;DHT22;3540;53.242;10.408;2024-02-21T07:18:24;8.40;99.90
7000;DHT22;3540;53.242;10.408;2024-02-21T07:20:51;8.40;99.90
7000;DHT22;3540;53.242;10.408;2024-02-21T07:23:18;8.40;99.90
7000;DHT22;3540;53.242;10.408;2024-02-21T07:25:43;8.40;99.90
7000;DHT22;3540;53.242;10.408;2024-02-21T07:28:09;8.40;99.90
7000;DHT22;3540;53.242;10.408;2024-02-21T07:30:35;8.50;99.90
7000;DHT22;3540;53.242;10.408;2024-02-21T07:33:00;8.50;99.90
7000;DHT22;3540;53.242;10.408;2024-02-21T07:35:26;8.50;99.90
7000;DHT22;3540;53.242;10.408;2024-02-21T07:37:52;8.50;99.90
7000;DHT22;3540;53.242;10.408;2024-02-21T07:40:17;8.50;99.90
7000;DHT22;3540;53.242;10.408;2024-02-21T07:42:44;8.50;99.90
7000;DHT22;3540;53.242;10.408;2024-02-21T07:45:10;8.60;99.90
7000;DHT22;3540;53.242;10.408;2024-02-21T07:47:36;8.60;99.90
7000;DHT22;3540;53.242;10.408;2024-02-21T07:50:03;8.60;99.90
7000;DHT22;3540;53.242;10.408;2024-02-21T07:52:29;8.60;99.90
7000;DHT22;3540;53.242;10.408;2024-02-21T07:54:55;8.60;99.90
7000;DHT22;3540;53.242;10.408;2024-02-21T07:57:20;8.70;99.90
7000;DHT22;3540;53.242;10.408;2024-02-21T07:59:46;8.70;99.90
7000;DHT22;3540;53.242;10.408;2024-02-21T08:02:15;8.70;99.90
7000;DHT22;3540;53.242;10.408;2024-02-21T08:04:41;8.80;99.90
7000;DHT22;3540;53.242;10.408;2024-02-21T08:07:06;8.70;99.90
7000;DHT22;3540;53.242;10.408;2024-02-21T08:09:32;8.80;99.90
7000;DHT22;3540;53.242;10.408;2024-02-21T08:11:58;8.80;99.90
7000;DHT22;3540;53.242;10.408;2024-02-21T08:14:24;8.90;99.90
7000;DHT22;3540;53.242;10.408;2024-02-21T08:16:53;8.90;99.90
7000;DHT22;3540;53.242;10.408;2024-02-21T08:19:20;8.90;99.90
7000;DHT22;3540;53.242;10.408;2024-02-21T08:21:46;9.00;99.90
7000;DHT22;3540;53.242;10.408;2024-02-21T08:24:15;8.90;99.90
7000;DHT22;3540;53.242;10.408;2024-02-21T08:26:44;9.00;99.90
7000;DHT22;3540;53.242;10.408;2024-02-21T08:29:11;9.00;99.90
7000;DHT22;3540;53.242;10.408;2024-02-21T08:31:37;9.20;99.90
7000;DHT22;3540;53.242;10.408;2024-02-21T08:34:03;9.20;99.90
7000;DHT22;3540;53.242;10.408;2024-02-21T08:38:56;9.30;99.90
7000;DHT22;3540;53.242;10.408;2024-02-21T08:41:23;9.30;99.90
7000;DHT22;3540;53.242;10.408;2024-02-21T08:43:52;9.30;99.90
7000;DHT22;3540;53.242;10.408;2024-02-21T08:46:19;9.30;99.90
7000;DHT22;3540;53.242;10.408;2024-02-21T08:48:46;9.40;99.90
7000;DHT22;3540;53.242;10.408;2024-02-21T08:51:15;9.40;99.90
7000;DHT22;3540;53.242;10.408;2024-02-21T08:53:40;9.40;99.90
7000;DHT22;3540;53.242;10.408;2024-02-21T08:56:06;9.40;99.90
7000;DHT22;3540;53.242;10.408;2024-02-21T08:58:36;9.40;99.90
7000;DHT22;3540;53.242;10.408;2024-02-21T09:01:03;9.50;99.90
7000;DHT22;3540;53.242;10.408;2024-02-21T09:03:39;9.60;99.90
7000;DHT22;3540;53.242;10.408;2024-02-21T09:06:09;9.60;99.90
7000;DHT22;3540;53.242;10.408;2024-02-21T09:08:35;9.60;99.90
7000;DHT22;3540;53.242;10.408;2024-02-21T09:11:01;9.70;99.90
7000;DHT22;3540;53.242;10.408;2024-02-21T09:13:27;9.60;99.90
7000;DHT22;3540;53.242;10.408;2024-02-21T09:15:52;9.70;99.90
7000;DHT22;3540;53.242;10.408;2024-02-21T09:18:18;9.70;99.90
7000;DHT22;3540;53.242;10.408;2024-02-21T09:20:44;9.70;99.90
7000;DHT22;3540;53.242;10.408;2024-02-21T09:23:10;9.80;99.90
7000;DHT22;3540;53.242;10.408;2024-02-21T09:25:35;9.90;99.90
7000;DHT22;3540;53.242;10.408;2024-02-21T09:28:02;9.90;99.90
7000;DHT22;3540;53.242;10.408;2024-02-21T09:30:28;9.90;99.90
7000;DHT22;3540;53.242;10.408;2024-02-21T09:32:53;9.90;99.90
7000;DHT22;3540;53.242;10.408;2024-02-21T09:35:19;9.80;99.90
7000;DHT22;3540;53.242;10.408;2024-02-21T09:37:47;9.80;99.90
7000;DHT22;3540;53.242;10.408;2024-02-21T09:40:15;9.80;99.90
7000;DHT22;3540;53.242;10.408;2024-02-21T09:42:42;9.70;99.90
7000;DHT22;3540;53.242;10.408;2024-02-21T09:45:13;9.70;99.90
7000;DHT22;3540;53.242;10.408;2024-02-21T09:50:32;9.40;99.90
7000;DHT22;3540;53.242;10.408;2024-02-21T09:53:00;9.50;99.90
7000;DHT22;3540;53.242;10.408;2024-02-21T09:55:29;9.40;99.90
7000;DHT22;3540;53.242;10.408;2024-02-21T09:57:58;9.30;99.90
7000;DHT22;3540;53.242;10.408;2024-02-21T10:00:24;9.20;99.90
7000;DHT22;3540;53.242;10.408;2024-02-21T10:02:49;9.20;99.90
7000;DHT22;3540;53.242;10.408;2024-02-21T10:05:16;9.20;99.90
7000;DHT22;3540;53.242;10.408;2024-02-21T10:07:43;9.10;99.90
7000;DHT22;3540;53.242;10.408;2024-02-21T10:10:09;9.10;99.90
7000;DHT22;3540;53.242;10.408;2024-02-21T10:12:35;9.10;99.90
7000;DHT22;3540;53.242;10.408;2024-02-21T10:15:05;9.10;99.90
7000;DHT22;3540;53.242;10.408;2024-02-21T10:17:34;9.10;99.90
7000;DHT22;3540;53.242;10.408;2024-02-21T10:20:10;9.10;99.90
7000;DHT22;3540;53.242;10.408;2024-02-21T10:22:37;9.10;99.90
7000;DHT22;3540;53.242;10.408;2024-02-21T10:25:11;9.10;99.90
7000;DHT22;3540;53.242;10.408;2024-02-21T10:27:38;9.10;99.90
7000;DHT22;3540;53.242;10.408;2024-02-21T10:30:06;9.20;99.90
7000;DHT22;3540;53.242;10.408;2024-02-21T10:32:32;9.30;99.90
7000;DHT22;3540;53.242;10.408;2024-02-21T10:35:04;9.40;99.90
7000;DHT22;3540;53.242;10.408;2024-02-21T10:37:31;9.40;99.90
7000;DHT22;3540;53.242;10.408;2024-02-21T10:40:00;9.50;99.90
7000;DHT22;3540;53.242;10.408;2024-02-21T10:42:29;9.60;99.90
7000;DHT22;3540;53.242;10.408;2024-02-21T10:45:01;9.60;99.90
7000;DHT22;3540;53.242;10.408;2024-02-21T10:47:32;9.60;99.90
7000;DHT22;3540;53.242;10.408;2024-02-21T10:50:02;9.70;99.90
7000;DHT22;3540;53.242;10.408;2024-02-21T10:52:35;9.80;99.90
7000;DHT22;3540;53.242;10.408;2024-02-21T10:55:10;9.80;99.90
7000;DHT22;3540;53.242;10.408;2024-02-21T10:57:38;9.80;99.90
7000;DHT22;3540;53.242;10.408;2024-02-21T11:00:04;9.80;99.90
7000;DHT22;3540;53.242;10.408;2024-02-21T11:02:34;9.80;99.90
7000;DHT22;3540;53.242;10.408;2024-02-21T11:05:01;9.90;99.90
7000;DHT22;3540;53.242;10.408;2024-02-21T11:07:29;10.00;99.90
7000;DHT22;3540;53.242;10.408;2024-02-21T11:09:55;10.00;99.90
7000;DHT22;3540;53.242;10.408;2024-02-21T11:12:21;10.00;99.90
7000;DHT22;3540;53.242;10.408;2024-02-21T11:14:48;10.00;99.90
7000;DHT22;3540;53.242;10.408;2024-02-21T11:17:20;10.00;99.90
7000;DHT22;3540;53.242;10.408;2024-02-21T11:19:53;9.90;99.90
7000;DHT22;3540;53.242;10.408;2024-02-21T11:22:19;9.80;99.90
7000;DHT22;3540;53.242;10.408;2024-02-21T11:24:48;9.70;99.90
7000;DHT22;3540;53.242;10.408;2024-02-21T11:27:19;9.70;99.90
7000;DHT22;3540;53.242;10.408;2024-02-21T11:29:54;9.70;99.90
7000;DHT22;3540;53.242;10.408;2024-02-21T11:32:21;9.60;99.90
7000;DHT22;3540;53.242;10.408;2024-02-21T11:35:19;9.50;99.90
7000;DHT22;3540;53.242;10.408;2024-02-21T11:37:44;9.50;99.90
7000;DHT22;3540;53.242;10.408;2024-02-21T11:40:12;9.40;99.90
7000;DHT22;3540;53.242;10.408;2024-02-21T11:42:38;9.40;99.90
7000;DHT22;3540;53.242;10.408;2024-02-21T11:45:04;9.40;99.90
7000;DHT22;3540;53.242;10.408;2024-02-21T11:47:30;9.40;99.90
7000;DHT22;3540;53.242;10.408;2024-02-21T11:49:55;9.20;99.90
7000;DHT22;3540;53.242;10.408;2024-02-21T11:52:21;9.10;99.90
7000;DHT22;3540;53.242;10.408;2024-02-21T11:54:50;9.10;99.90
7000;DHT22;3540;53.242;10.408;2024-02-21T11:57:17;9.10;99.90
7000;DHT22;3540;53.242;10.408;2024-02-21T11:59:44;9.20;99.90
7000;DHT22;3540;53.242;10.408;2024-02-21T12:02:12;9.10;99.90
7000;DHT22;3540;53.242;10.408;2024-02-21T12:04:37;9.10;99.90
7000;DHT22;3540;53.242;10.408;2024-02-21T12:07:04;9.10;99.90
7000;DHT22;3540;53.242;10.408;2024-02-21T12:09:30;9.10;99.90
7000;DHT22;3540;53.242;10.408;2024-02-21T12:12:01;9.10;99.90
7000;DHT22;3540;53.242;10.408;2024-02-21T12:14:27;9.20;99.90
7000;DHT22;3540;53.242;10.408;2024-02-21T12:16:54;9.20;99.90
7000;DHT22;3540;53.242;10.408;2024-02-21T12:19:20;9.20;99.90
7000;DHT22;3540;53.242;10.408;2024-02-21T12:21:48;9.20;99.90
7000;DHT22;3540;53.242;10.408;2024-02-21T12:24:22;9.40;99.90
7000;DHT22;3540;53.242;10.408;2024-02-21T12:26:49;9.40;99.90
7000;DHT22;3540;53.242;10.408;2024-02-21T12:29:15;9.40;99.90
7000;DHT22;3540;53.242;10.408;2024-02-21T12:31:40;9.50;99.90
7000;DHT22;3540;53.242;10.408;2024-02-21T12:34:06;9.50;99.90
7000;DHT22;3540;53.242;10.408;2024-02-21T12:36:32;9.50;99.90
7000;DHT22;3540;53.242;10.408;2024-02-21T12:38:59;9.50;99.90
7000;DHT22;3540;53.242;10.408;2024-02-21T12:41:25;9.60;99.90
7000;DHT22;3540;53.242;10.408;2024-02-21T12:43:52;9.60;99.90
7000;DHT22;3540;53.242;10.408;2024-02-21T12:46:18;9.60;99.90
7000;DHT22;3540;53.242;10.408;2024-02-21T12:48:44;9.70;99.90
7000;DHT22;3540;53.242;10.408;2024-02-21T12:51:09;9.80;99.90
7000;DHT22;3540;53.242;10.408;2024-02-21T12:53:35;9.80;99.90
7000;DHT22;3540;53.242;10.408;2024-02-21T12:56:01;9.90;99.90
7000;DHT22;3540;53.242;10.408;2024-02-21T12:58:27;9.80;99.90
7000;DHT22;3540;53.242;10.408;2024-02-21T13:00:52;9.80;99.90
7000;DHT22;3540;53.242;10.408;2024-02-21T13:03:18;9.80;99.90
7000;DHT22;3540;53.242;10.408;2024-02-21T13:05:44;9.90;99.90
7000;DHT22;3540;53.242;10.408;2024-02-21T13:08:10;9.90;99.90
7000;DHT22;3540;53.242;10.408;2024-02-21T13:10:37;9.90;99.90
7000;DHT22;3540;53.242;10.408;2024-02-21T13:13:03;10.00;99.90
7000;DHT22;3540;53.242;10.408;2024-02-21T13:15:29;10.10;99.90
7000;DHT22;3540;53.242;10.408;2024-02-21T13:17:58;10.20;99.90
7000;DHT22;3540;53.242;10.408;2024-02-21T13:20:25;10.30;99.90
7000;DHT22;3540;53.242;10.408;2024-02-21T13:22:51;10.20;99.90
7000;DHT22;3540;53.242;10.408;2024-02-21T13:25:17;10.30;99.90
7000;DHT22;3540;53.242;10.408;2024-02-21T13:27:45;10.20;99.90
7000;DHT22;3540;53.242;10.408;2024-02-21T13:30:12;10.30;99.90
7000;DHT22;3540;53.242;10.408;2024-02-21T13:32:38;10.20;99.90
7000;DHT22;3540;53.242;10.408;2024-02-21T13:35:04;10.30;99.90
7000;DHT22;3540;53.242;10.408;2024-02-21T13:37:29;10.30;99.90
7000;DHT22;3540;53.242;10.408;2024-02-21T13:39:55;10.40;99.90
7000;DHT22;3540;53.242;10.408;2024-02-21T13:42:21;10.40;99.90
7000;DHT22;3540;53.242;10.408;2024-02-21T13:44:47;10.50;99.90
7000;DHT22;3540;53.242;10.408;2024-02-21T13:47:14;10.40;99.90
7000;DHT22;3540;53.242;10.408;2024-02-21T13:49:40;10.40;99.90
7000;DHT22;3540;53.242;10.408;2024-02-21T13:52:06;10.40;99.90
7000;DHT22;3540;53.242;10.408;2024-02-21T13:54:32;10.40;99.90
7000;DHT22;3540;53.242;10.408;2024-02-21T13:56:57;10.30;99.90
7000;DHT22;3540;53.242;10.408;2024-02-21T13:59:23;10.30;99.90
7000;DHT22;3540;53.242;10.408;2024-02-21T14:01:48;10.40;99.90
7000;DHT22;3540;53.242;10.408;2024-02-21T14:04:14;10.50;99.90
7000;DHT22;3540;53.242;10.408;2024-02-21T14:06:40;10.50;99.90
7000;DHT22;3540;53.242;10.408;2024-02-21T14:09:11;10.60;99.90
7000;DHT22;3540;53.242;10.408;2024-02-21T14:11:37;10.50;99.90
7000;DHT22;3540;53.242;10.408;2024-02-21T14:14:04;10.60;99.90
7000;DHT22;3540;53.242;10.408;2024-02-21T14:16:30;10.50;99.90
7000;DHT22;3540;53.242;10.408;2024-02-21T14:18:56;10.50;99.90
7000;DHT22;3540;53.242;10.408;2024-02-21T14:21:21;10.50;99.90
7000;DHT22;3540;53.242;10.408;2024-02-21T14:23:47;10.50;99.90
7000;DHT22;3540;53.242;10.408;2024-02-21T14:26:13;10.50;99.90
7000;DHT22;3540;53.242;10.408;2024-02-21T14:28:40;10.50;99.90
7000;DHT22;3540;53.242;10.408;2024-02-21T14:31:06;10.60;99.90
7000;DHT22;3540;53.242;10.408;2024-02-21T14:33:35;10.60;99.90
7000;DHT22;3540;53.242;10.408;2024-02-21T14:36:01;10.60;99.90
7000;DHT22;3540;53.242;10.408;2024-02-21T14:38:27;10.50;99.90
7000;DHT22;3540;53.242;10.408;2024-02-21T14:40:53;10.50;99.90
7000;DHT22;3540;53.242;10.408;2024-02-21T14:43:19;10.50;99.90
7000;DHT22;3540;53.242;10.408;2024-02-21T14:45:47;10.40;99.90
7000;DHT22;3540;53.242;10.408;2024-02-21T14:48:13;10.40;99.90
7000;DHT22;3540;53.242;10.408;2024-02-21T14:50:38;10.40;99.90
7000;DHT22;3540;53.242;10.408;2024-02-21T14:53:04;10.40;99.90
7000;DHT22;3540;53.242;10.408;2024-02-21T14:55:30;10.40;99.90
7000;DHT22;3540;53.242;10.408;2024-02-21T14:57:56;10.30;99.90
7000;DHT22;3540;53.242;10.408;2024-02-21T15:00:21;10.30;99.90
7000;DHT22;3540;53.242;10.408;2024-02-21T15:02:55;10.30;99.90
7000;DHT22;3540;53.242;10.408;2024-02-21T15:05:20;10.30;99.90
7000;DHT22;3540;53.242;10.408;2024-02-21T15:07:46;10.30;99.90
7000;DHT22;3540;53.242;10.408;2024-02-21T15:10:11;10.30;99.90
7000;DHT22;3540;53.242;10.408;2024-02-21T15:12:37;10.30;99.90
7000;DHT22;3540;53.242;10.408;2024-02-21T15:15:03;10.20;99.90
7000;DHT22;3540;53.242;10.408;2024-02-21T15:17:29;10.10;99.90
7000;DHT22;3540;53.242;10.408;2024-02-21T15:19:55;10.10;99.90
7000;DHT22;3540;53.242;10.408;2024-02-21T15:22:21;10.10;99.90
7000;DHT22;3540;53.242;10.408;2024-02-21T15:24:48;10.10;99.90
7000;DHT22;3540;53.242;10.408;2024-02-21T15:27:14;10.10;99.90
7000;DHT22;3540;53.242;10.408;2024-02-21T15:29:40;10.10;99.90
7000;DHT22;3540;53.242;10.408;2024-02-21T15:32:06;10.10;99.90
7000;DHT22;3540;53.242;10.408;2024-02-21T15:34:32;10.10;99.90
7000;DHT22;3540;53.242;10.408;2024-02-21T15:36:57;10.00;99.90
7000;DHT22;3540;53.242;10.408;2024-02-21T15:39:23;10.00;99.90
7000;DHT22;3540;53.242;10.408;2024-02-21T15:41:50;9.90;99.90
7000;DHT22;3540;53.242;10.408;2024-02-21T15:44:16;9.90;99.90
7000;DHT22;3540;53.242;10.408;2024-02-21T15:46:41;9.80;99.90
7000;DHT22;3540;53.242;10.408;2024-02-21T15:49:07;9.80;99.90
7000;DHT22;3540;53.242;10.408;2024-02-21T15:51:33;9.70;99.90
7000;DHT22;3540;53.242;10.408;2024-02-21T15:54:00;9.70;99.90
7000;DHT22;3540;53.242;10.408;2024-02-21T15:56:26;9.60;99.90
7000;DHT22;3540;53.242;10.408;2024-02-21T15:58:53;9.60;99.90
7000;DHT22;3540;53.242;10.408;2024-02-21T16:01:20;9.60;99.90